sensor_id;sensor_type;location;lat;lon;timestamp;temperature;humidity
20366;DHT22;10341;49.894;8.822;2023-02-05T00:02:39;2.90;99.90
20366;DHT22;10341;49.894;8.822;2023-02-05T00:07:59;2.80;99.90
20366;DHT22;10341;49.894;8.822;2023-02-05T00:13:18;2.70;99.90
20366;DHT22;10341;49.894;8.822;2023-02-05T00:18:37;2.60;99.90
20366;DHT22;10341;49.894;8.822;2023-02-05T00:23:57;2.60;99.90
20366;DHT22;10341;49.894;8.822;2023-02-05T00:29:16;2.60;99.90
20366;DHT22;10341;49.894;8.822;2023-02-05T00:34:35;2.60;99.90
20366;DHT22;10341;49.894;8.822;2023-02-05T00:39:54;2.60;99.90
20366;DHT22;10341;49.894;8.822;2023-02-05T00:45:14;2.70;99.90
20366;DHT22;10341;49.894;8.822;2023-02-05T00:50:33;2.60;99.90
20366;DHT22;10341;49.894;8.822;2023-02-05T00:55:53;2.60;99.90
20366;DHT22;10341;49.894;8.822;2023-02-05T01:01:13;2.60;99.90
20366;DHT22;10341;49.894;8.822;2023-02-05T01:06:33;2.50;99.90
20366;DHT22;10341;49.894;8.822;2023-02-05T01:11:53;2.40;99.90
20366;DHT22;10341;49.894;8.822;2023-02-05T01:17:12;2.50;99.90
20366;DHT22;10341;49.894;8.822;2023-02-05T01:22:31;2.50;99.90
20366;DHT22;10341;49.894;8.822;2023-02-05T01:27:51;2.40;99.90
20366;DHT22;10341;49.894;8.822;2023-02-05T01:33:10;2.30;99.90
20366;DHT22;10341;49.894;8.822;2023-02-05T01:38:29;2.10;99.90
20366;DHT22;10341;49.894;8.822;2023-02-05T01:49:28;1.70;99.90
20366;DHT22;10341;49.894;8.822;2023-02-05T01:54:49;1.50;99.90
20366;DHT22;10341;49.894;8.822;2023-02-05T02:00:11;1.30;99.90
20366;DHT22;10341;49.894;8.822;2023-02-05T02:05:36;1.20;99.90
20366;DHT22;10341;49.894;8.822;2023-02-05T02:10:57;1.00;99.90
20366;DHT22;10341;49.894;8.822;2023-02-05T02:16:18;0.90;99.90
20366;DHT22;10341;49.894;8.822;2023-02-05T02:21:40;0.80;99.90
20366;DHT22;10341;49.894;8.822;2023-02-05T02:38:15;0.60;99.90
20366;DHT22;10341;49.894;8.822;2023-02-05T02:43:50;0.70;99.90
20366;DHT22;10341;49.894;8.822;2023-02-05T02:49:13;0.60;99.90
20366;DHT22;10341;49.894;8.822;2023-02-05T02:54:34;0.50;99.90
20366;DHT22;10341;49.894;8.822;2023-02-05T02:59:54;0.50;99.90
20366;DHT22;10341;49.894;8.822;2023-02-05T03:05:17;0.50;99.90
20366;DHT22;10341;49.894;8.822;2023-02-05T03:10:40;0.60;99.90
20366;DHT22;10341;49.894;8.822;2023-02-05T03:16:01;0.60;99.90
20366;DHT22;10341;49.894;8.822;2023-02-05T03:21:25;0.70;99.90
20366;DHT22;10341;49.894;8.822;2023-02-05T03:26:45;0.80;99.90
20366;DHT22;10341;49.894;8.822;2023-02-05T03:32:14;0.80;99.90
20366;DHT22;10341;49.894;8.822;2023-02-05T03:37:40;0.80;99.90
20366;DHT22;10341;49.894;8.822;2023-02-05T03:43:05;0.80;99.90
20366;DHT22;10341;49.894;8.822;2023-02-05T03:54:00;0.90;99.90
20366;DHT22;10341;49.894;8.822;2023-02-05T03:59:20;1.00;99.90
20366;DHT22;10341;49.894;8.822;2023-02-05T04:04:40;0.90;99.90
20366;DHT22;10341;49.894;8.822;2023-02-05T04:10:00;1.00;99.90
20366;DHT22;10341;49.894;8.822;2023-02-05T04:15:20;1.10;99.90
20366;DHT22;10341;49.894;8.822;2023-02-05T04:20:45;1.10;99.90
20366;DHT22;10341;49.894;8.822;2023-02-05T04:26:07;1.30;99.90
20366;DHT22;10341;49.894;8.822;2023-02-05T04:31:33;1.40;99.90
20366;DHT22;10341;49.894;8.822;2023-02-05T04:36:54;1.40;99.90
20366;DHT22;10341;49.894;8.822;2023-02-05T04:42:14;1.50;99.90
20366;DHT22;10341;49.894;8.822;2023-02-05T04:47:34;1.40;99.90
20366;DHT22;10341;49.894;8.822;2023-02-05T04:52:53;1.40;99.90
20366;DHT22;10341;49.894;8.822;2023-02-05T04:58:12;1.50;99.90
20366;DHT22;10341;49.894;8.822;2023-02-05T05:03:31;1.60;99.90
20366;DHT22;10341;49.894;8.822;2023-02-05T05:08:50;1.60;99.90
20366;DHT22;10341;49.894;8.822;2023-02-05T05:14:10;1.70;99.90
20366;DHT22;10341;49.894;8.822;2023-02-05T05:19:29;1.80;99.90
20366;DHT22;10341;49.894;8.822;2023-02-05T05:24:48;1.80;99.90
20366;DHT22;10341;49.894;8.822;2023-02-05T05:30:08;1.90;99.90
20366;DHT22;10341;49.894;8.822;2023-02-05T05:35:29;1.90;99.90
20366;DHT22;10341;49.894;8.822;2023-02-05T05:40:48;1.90;99.90
20366;DHT22;10341;49.894;8.822;2023-02-05T05:46:36;2.00;99.90
20366;DHT22;10341;49.894;8.822;2023-02-05T05:51:56;2.10;99.90
20366;DHT22;10341;49.894;8.822;2023-02-05T05:57:15;2.10;99.90
20366;DHT22;10341;49.894;8.822;2023-02-05T06:02:38;2.10;99.90
20366;DHT22;10341;49.894;8.822;2023-02-05T06:07:57;2.10;99.90
20366;DHT22;10341;49.894;8.822;2023-02-05T06:13:16;2.10;99.90
20366;DHT22;10341;49.894;8.822;2023-02-05T06:18:36;2.20;99.90
20366;DHT22;10341;49.894;8.822;2023-02-05T06:23:55;2.20;99.90
20366;DHT22;10341;49.894;8.822;2023-02-05T06:29:14;2.20;99.90
20366;DHT22;10341;49.894;8.822;2023-02-05T06:34:33;2.30;99.90
20366;DHT22;10341;49.894;8.822;2023-02-05T06:39:53;2.40;99.90
20366;DHT22;10341;49.894;8.822;2023-02-05T06:45:12;2.40;99.90
20366;DHT22;10341;49.894;8.822;2023-02-05T06:50:31;2.30;99.90
20366;DHT22;10341;49.894;8.822;2023-02-05T06:55:50;2.30;99.90
20366;DHT22;10341;49.894;8.822;2023-02-05T07:01:09;2.40;99.90
20366;DHT22;10341;49.894;8.822;2023-02-05T07:06:29;2.50;99.90
20366;DHT22;10341;49.894;8.822;2023-02-05T07:11:48;2.50;99.90
20366;DHT22;10341;49.894;8.822;2023-02-05T07:17:07;2.50;99.90
20366;DHT22;10341;49.894;8.822;2023-02-05T07:22:27;2.60;99.90
20366;DHT22;10341;49.894;8.822;2023-02-05T07:27:46;2.60;99.90
20366;DHT22;10341;49.894;8.822;2023-02-05T07:33:05;2.60;99.90
20366;DHT22;10341;49.894;8.822;2023-02-05T07:38:24;2.70;99.90
20366;DHT22;10341;49.894;8.822;2023-02-05T07:43:44;2.70;99.90
20366;DHT22;10341;49.894;8.822;2023-02-05T07:49:03;2.70;99.90
20366;DHT22;10341;49.894;8.822;2023-02-05T07:54:22;2.70;99.90
20366;DHT22;10341;49.894;8.822;2023-02-05T07:59:42;2.70;99.90
20366;DHT22;10341;49.894;8.822;2023-02-05T08:05:01;2.80;99.90
20366;DHT22;10341;49.894;8.822;2023-02-05T08:10:21;2.80;99.90
20366;DHT22;10341;49.894;8.822;2023-02-05T08:15:40;2.70;99.90
20366;DHT22;10341;49.894;8.822;2023-02-05T08:20:59;2.80;99.90
20366;DHT22;10341;49.894;8.822;2023-02-05T08:26:19;3.00;99.90
20366;DHT22;10341;49.894;8.822;2023-02-05T08:31:38;3.00;99.90
20366;DHT22;10341;49.894;8.822;2023-02-05T08:36:57;3.00;99.90
20366;DHT22;10341;49.894;8.822;2023-02-05T08:42:17;3.00;99.90
20366;DHT22;10341;49.894;8.822;2023-02-05T08:47:36;3.10;99.90
20366;DHT22;10341;49.894;8.822;2023-02-05T08:52:56;3.20;99.90
20366;DHT22;10341;49.894;8.822;2023-02-05T08:58:15;3.30;99.90
20366;DHT22;10341;49.894;8.822;2023-02-05T09:03:34;3.30;99.90
20366;DHT22;10341;49.894;8.822;2023-02-05T09:08:54;3.40;99.90
20366;DHT22;10341;49.894;8.822;2023-02-05T09:14:13;3.40;99.90
20366;DHT22;10341;49.894;8.822;2023-02-05T09:19:33;3.50;99.90
20366;DHT22;10341;49.894;8.822;2023-02-05T09:24:53;3.50;99.90
20366;DHT22;10341;49.894;8.822;2023-02-05T09:30:12;3.50;99.90
20366;DHT22;10341;49.894;8.822;2023-02-05T09:35:32;3.60;99.90
20366;DHT22;10341;49.894;8.822;2023-02-05T09:41:00;3.70;99.90
20366;DHT22;10341;49.894;8.822;2023-02-05T09:52:00;3.70;99.90
20366;DHT22;10341;49.894;8.822;2023-02-05T09:57:28;3.90;99.90
20366;DHT22;10341;49.894;8.822;2023-02-05T10:02:54;3.90;99.90
20366;DHT22;10341;49.894;8.822;2023-02-05T10:13:44;3.90;99.90
20366;DHT22;10341;49.894;8.822;2023-02-05T10:41:50;4.00;99.90
20366;DHT22;10341;49.894;8.822;2023-02-05T10:46:43;4.10;99.90
20366;DHT22;10341;49.894;8.822;2023-02-05T10:52:10;4.20;99.90
20366;DHT22;10341;49.894;8.822;2023-02-05T10:57:30;4.30;99.90
20366;DHT22;10341;49.894;8.822;2023-02-05T11:02:52;4.60;99.90
20366;DHT22;10341;49.894;8.822;2023-02-05T11:08:33;4.60;99.90
20366;DHT22;10341;49.894;8.822;2023-02-05T11:13:56;4.70;99.90
20366;DHT22;10341;49.894;8.822;2023-02-05T11:19:18;4.60;99.90
20366;DHT22;10341;49.894;8.822;2023-02-05T11:24:38;4.60;99.90
20366;DHT22;10341;49.894;8.822;2023-02-05T11:29:58;4.60;99.90
20366;DHT22;10341;49.894;8.822;2023-02-05T11:35:34;4.60;99.90
20366;DHT22;10341;49.894;8.822;2023-02-05T11:40:56;4.50;99.90
20366;DHT22;10341;49.894;8.822;2023-02-05T11:46:23;4.40;99.90
20366;DHT22;10341;49.894;8.822;2023-02-05T11:51:43;4.40;99.90
20366;DHT22;10341;49.894;8.822;2023-02-05T11:57:22;4.40;99.90
20366;DHT22;10341;49.894;8.822;2023-02-05T12:02:45;4.40;99.90
20366;DHT22;10341;49.894;8.822;2023-02-05T12:08:23;4.50;99.90
20366;DHT22;10341;49.894;8.822;2023-02-05T12:14:03;4.50;99.90
20366;DHT22;10341;49.894;8.822;2023-02-05T12:19:33;4.70;99.90
20366;DHT22;10341;49.894;8.822;2023-02-05T12:24:57;4.70;99.90
20366;DHT22;10341;49.894;8.822;2023-02-05T12:36:01;4.70;99.90
20366;DHT22;10341;49.894;8.822;2023-02-05T12:57:50;5.00;99.90
20366;DHT22;10341;49.894;8.822;2023-02-05T13:08:44;5.50;99.90
20366;DHT22;10341;49.894;8.822;2023-02-05T13:19:41;5.70;99.90
20366;DHT22;10341;49.894;8.822;2023-02-05T13:25:02;5.80;99.90
20366;DHT22;10341;49.894;8.822;2023-02-05T13:31:01;6.00;99.90
20366;DHT22;10341;49.894;8.822;2023-02-05T14:03:34;5.60;99.90
20366;DHT22;10341;49.894;8.822;2023-02-05T14:09:19;5.70;99.90
20366;DHT22;10341;49.894;8.822;2023-02-05T14:14:40;5.80;99.90
20366;DHT22;10341;49.894;8.822;2023-02-05T14:19:59;5.80;99.90
20366;DHT22;10341;49.894;8.822;2023-02-05T14:30:54;5.80;99.90
20366;DHT22;10341;49.894;8.822;2023-02-05T14:41:43;5.90;99.90
20366;DHT22;10341;49.894;8.822;2023-02-05T14:47:07;5.90;99.90
20366;DHT22;10341;49.894;8.822;2023-02-05T14:52:35;5.90;99.90
20366;DHT22;10341;49.894;8.822;2023-02-05T14:58:02;5.80;99.90
20366;DHT22;10341;49.894;8.822;2023-02-05T15:03:23;5.70;99.90
20366;DHT22;10341;49.894;8.822;2023-02-05T15:08:46;5.70;99.90
20366;DHT22;10341;49.894;8.822;2023-02-05T15:19:54;5.60;99.90
20366;DHT22;10341;49.894;8.822;2023-02-05T15:31:11;5.40;99.90
20366;DHT22;10341;49.894;8.822;2023-02-05T15:42:48;5.20;99.90
20366;DHT22;10341;49.894;8.822;2023-02-05T15:48:00;5.20;99.90
20366;DHT22;10341;49.894;8.822;2023-02-05T15:53:29;5.20;99.90
20366;DHT22;10341;49.894;8.822;2023-02-05T15:58:55;5.10;99.90
20366;DHT22;10341;49.894;8.822;2023-02-05T16:04:19;5.10;99.90
20366;DHT22;10341;49.894;8.822;2023-02-05T16:09:46;5.00;99.90
20366;DHT22;10341;49.894;8.822;2023-02-05T16:15:06;5.00;99.90
20366;DHT22;10341;49.894;8.822;2023-02-05T16:20:32;5.00;99.90
20366;DHT22;10341;49.894;8.822;2023-02-05T16:26:01;4.90;99.90
20366;DHT22;10341;49.894;8.822;2023-02-05T16:31:22;4.90;99.90
20366;DHT22;10341;49.894;8.822;2023-02-05T16:36:43;4.90;99.90
20366;DHT22;10341;49.894;8.822;2023-02-05T16:42:04;4.90;99.90
20366;DHT22;10341;49.894;8.822;2023-02-05T16:47:23;4.80;99.90
20366;DHT22;10341;49.894;8.822;2023-02-05T16:52:43;4.90;99.90
20366;DHT22;10341;49.894;8.822;2023-02-05T16:58:20;4.80;99.90
20366;DHT22;10341;49.894;8.822;2023-02-05T17:03:39;4.70;99.90
20366;DHT22;10341;49.894;8.822;2023-02-05T17:08:59;4.70;99.90
20366;DHT22;10341;49.894;8.822;2023-02-05T17:14:27;4.60;99.90
20366;DHT22;10341;49.894;8.822;2023-02-05T17:20:16;4.60;99.90
20366;DHT22;10341;49.894;8.822;2023-02-05T17:25:39;4.60;99.90
20366;DHT22;10341;49.894;8.822;2023-02-05T17:30:59;4.50;99.90
20366;DHT22;10341;49.894;8.822;2023-02-05T17:36:19;4.40;99.90
20366;DHT22;10341;49.894;8.822;2023-02-05T17:41:38;4.40;99.90
20366;DHT22;10341;49.894;8.822;2023-02-05T17:47:17;4.40;99.90
20366;DHT22;10341;49.894;8.822;2023-02-05T17:52:37;4.30;99.90
20366;DHT22;10341;49.894;8.822;2023-02-05T17:57:56;4.30;99.90
20366;DHT22;10341;49.894;8.822;2023-02-05T18:03:15;4.30;99.90
20366;DHT22;10341;49.894;8.822;2023-02-05T18:08:34;4.30;99.90
20366;DHT22;10341;49.894;8.822;2023-02-05T18:13:54;4.30;99.90
20366;DHT22;10341;49.894;8.822;2023-02-05T18:19:14;4.30;99.90
20366;DHT22;10341;49.894;8.822;2023-02-05T18:24:33;4.20;99.90
20366;DHT22;10341;49.894;8.822;2023-02-05T18:29:55;4.20;99.90
20366;DHT22;10341;49.894;8.822;2023-02-05T18:41:48;4.20;99.90
20366;DHT22;10341;49.894;8.822;2023-02-05T18:47:07;4.20;99.90
20366;DHT22;10341;49.894;8.822;2023-02-05T18:52:27;4.20;99.90
20366;DHT22;10341;49.894;8.822;2023-02-05T18:57:51;4.10;99.90
20366;DHT22;10341;49.894;8.822;2023-02-05T19:03:10;4.20;99.90
20366;DHT22;10341;49.894;8.822;2023-02-05T19:08:30;4.20;99.90
20366;DHT22;10341;49.894;8.822;2023-02-05T19:13:53;4.20;99.90
20366;DHT22;10341;49.894;8.822;2023-02-05T19:19:17;4.10;99.90
20366;DHT22;10341;49.894;8.822;2023-02-05T19:24:36;4.10;99.90
20366;DHT22;10341;49.894;8.822;2023-02-05T19:29:58;4.00;99.90
20366;DHT22;10341;49.894;8.822;2023-02-05T19:35:17;4.00;99.90
20366;DHT22;10341;49.894;8.822;2023-02-05T19:40:36;3.90;99.90
20366;DHT22;10341;49.894;8.822;2023-02-05T19:45:55;3.90;99.90
20366;DHT22;10341;49.894;8.822;2023-02-05T19:51:19;3.90;99.90
20366;DHT22;10341;49.894;8.822;2023-02-05T19:56:38;3.90;99.90
20366;DHT22;10341;49.894;8.822;2023-02-05T20:01:57;3.90;99.90
20366;DHT22;10341;49.894;8.822;2023-02-05T20:07:17;3.90;99.90
20366;DHT22;10341;49.894;8.822;2023-02-05T20:12:36;3.80;99.90
20366;DHT22;10341;49.894;8.822;2023-02-05T20:17:55;3.80;99.90
20366;DHT22;10341;49.894;8.822;2023-02-05T20:23:14;3.70;99.90
20366;DHT22;10341;49.894;8.822;2023-02-05T20:28:35;3.70;99.90
20366;DHT22;10341;49.894;8.822;2023-02-05T20:34:16;3.70;99.90
20366;DHT22;10341;49.894;8.822;2023-02-05T20:39:40;3.60;99.90
20366;DHT22;10341;49.894;8.822;2023-02-05T20:45:00;3.60;99.90
20366;DHT22;10341;49.894;8.822;2023-02-05T20:50:19;3.60;99.90
20366;DHT22;10341;49.894;8.822;2023-02-05T20:55:39;3.60;99.90
20366;DHT22;10341;49.894;8.822;2023-02-05T21:01:08;3.60;99.90
20366;DHT22;10341;49.894;8.822;2023-02-05T21:06:32;3.60;99.90
20366;DHT22;10341;49.894;8.822;2023-02-05T21:11:52;3.50;99.90
20366;DHT22;10341;49.894;8.822;2023-02-05T21:17:13;3.50;99.90
20366;DHT22;10341;49.894;8.822;2023-02-05T21:22:32;3.50;99.90
20366;DHT22;10341;49.894;8.822;2023-02-05T21:27:51;3.50;99.90
20366;DHT22;10341;49.894;8.822;2023-02-05T21:33:11;3.40;99.90
20366;DHT22;10341;49.894;8.822;2023-02-05T21:38:33;3.40;99.90
20366;DHT22;10341;49.894;8.822;2023-02-05T21:43:56;3.40;99.90
20366;DHT22;10341;49.894;8.822;2023-02-05T21:49:15;3.30;99.90
20366;DHT22;10341;49.894;8.822;2023-02-05T21:54:34;3.10;99.90
20366;DHT22;10341;49.894;8.822;2023-02-05T21:59:53;3.00;99.90
20366;DHT22;10341;49.894;8.822;2023-02-05T22:05:13;3.00;99.90
20366;DHT22;10341;49.894;8.822;2023-02-05T22:10:32;2.80;99.90
20366;DHT22;10341;49.894;8.822;2023-02-05T22:15:59;2.70;99.90
20366;DHT22;10341;49.894;8.822;2023-02-05T22:21:20;2.70;99.90
20366;DHT22;10341;49.894;8.822;2023-02-05T22:26:40;2.80;99.90
20366;DHT22;10341;49.894;8.822;2023-02-05T22:31:59;2.70;99.90
20366;DHT22;10341;49.894;8.822;2023-02-05T22:37:18;2.80;99.90
20366;DHT22;10341;49.894;8.822;2023-02-05T22:42:38;2.80;99.90
20366;DHT22;10341;49.894;8.822;2023-02-05T22:47:57;2.90;99.90
20366;DHT22;10341;49.894;8.822;2023-02-05T22:53:16;2.90;99.90
20366;DHT22;10341;49.894;8.822;2023-02-05T22:58:39;2.90;99.90
20366;DHT22;10341;49.894;8.822;2023-02-05T23:03:59;2.90;99.90
20366;DHT22;10341;49.894;8.822;2023-02-05T23:09:19;2.90;99.90
20366;DHT22;10341;49.894;8.822;2023-02-05T23:14:38;3.00;99.90
20366;DHT22;10341;49.894;8.822;2023-02-05T23:19:57;3.00;99.90
20366;DHT22;10341;49.894;8.822;2023-02-05T23:25:17;3.00;99.90
20366;DHT22;10341;49.894;8.822;2023-02-05T23:30:36;3.10;99.90
20366;DHT22;10341;49.894;8.822;2023-02-05T23:35:55;3.10;99.90
20366;DHT22;10341;49.894;8.822;2023-02-05T23:41:14;3.10;99.90
20366;DHT22;10341;49.894;8.822;2023-02-05T23:46:53;3.20;99.90
20366;DHT22;10341;49.894;8.822;2023-02-05T23:52:12;3.10;99.90
20366;DHT22;10341;49.894;8.822;2023-02-05T23:57:31;3.20;99.90
